Time;durP1;ratioP1;P1;durP2;ratioP2;P2;SDS_P1;SDS_P2;PMS_P1;PMS_P2;Temp;Humidity;BMP_temperature;BMP_pressure;BME280_temperature;BME280_humidity;BME280_pressure;Samples;Min_cycle;Max_cycle;Signal;HPM_P1;HPM_P2
2022/01/25 00:24:31;;;;;;;42.63;26.50;;;-7.70;99.90;;;;;;4993983;28;20433;-76
2022/01/25 00:27:25;;;;;;;41.17;24.03;;;-7.50;99.90;;;;;;4992972;28;20447;-75
2022/01/25 00:32:20;;;;;;;46.37;26.23;;;-7.40;99.90;;;;;;4993744;28;20424;-79
2022/01/25 00:34:46;;;;;;;43.23;24.33;;;-7.60;99.90;;;;;;4993254;28;20396;-80
2022/01/25 00:37:12;;;;;;;38.40;22.43;;;-7.60;99.90;;;;;;4993461;28;20463;-79
2022/01/25 00:39:40;;;;;;;39.77;23.77;;;-7.80;99.90;;;;;;4993243;28;20215;-80
2022/01/25 00:42:09;;;;;;;42.83;24.17;;;-7.70;99.90;;;;;;4993440;28;20496;-83
2022/01/25 00:44:38;;;;;;;45.87;24.20;;;-7.90;99.90;;;;;;4993537;28;20414;-82
2022/01/25 00:47:06;;;;;;;47.63;24.57;;;-7.70;99.90;;;;;;4993343;28;20412;-76
2022/01/25 00:49:39;;;;;;;36.47;25.60;;;-7.70;99.90;;;;;;4993256;28;20440;-80
2022/01/25 00:54:53;;;;;;;38.37;25.73;;;-7.90;99.90;;;;;;4972707;28;20467;-80
2022/01/25 00:57:19;;;;;;;44.13;27.73;;;-7.90;99.90;;;;;;4993373;28;20412;-78
2022/01/25 00:59:47;;;;;;;39.47;24.73;;;-7.80;99.90;;;;;;4993275;28;20458;-83
2022/01/25 01:02:15;;;;;;;42.67;25.17;;;-7.90;99.90;;;;;;4992911;28;20579;-79
2022/01/25 01:04:42;;;;;;;45.97;27.13;;;-7.50;99.90;;;;;;4993276;28;20404;-81
2022/01/25 01:07:12;;;;;;;43.60;26.87;;;-6.60;99.90;;;;;;4993112;28;20408;-79
2022/01/25 01:09:40;;;;;;;41.70;25.27;;;-6.30;99.90;;;;;;4993140;28;20424;-77
2022/01/25 01:41:19;;;;;;;40.77;26.27;;;-8.40;99.90;;;;;;5073149;28;20456;-80
2022/01/25 01:43:45;;;;;;;42.47;26.40;;;-7.70;99.90;;;;;;5072825;28;20500;-76
2022/01/25 01:51:31;;;;;;;41.70;24.13;;;-8.00;99.90;;;;;;5072944;28;20648;-78
2022/01/25 01:54:05;;;;;;;40.37;24.70;;;-6.10;99.90;;;;;;5072735;28;20494;-76
2022/01/25 01:56:31;;;;;;;40.17;23.63;;;-8.10;99.90;;;;;;5072873;28;20401;-80
2022/01/25 01:58:59;;;;;;;39.33;25.63;;;-7.90;99.90;;;;;;5072659;28;20401;-80
2022/01/25 02:01:27;;;;;;;42.87;26.13;;;-8.20;99.90;;;;;;5072433;28;20466;-79
2022/01/25 02:03:55;;;;;;;41.83;25.43;;;-6.10;99.90;;;;;;5072495;28;20789;-77
2022/01/25 02:06:21;;;;;;;40.57;26.27;;;-7.20;99.90;;;;;;5072807;28;20400;-78
2022/01/25 02:08:47;;;;;;;48.03;26.73;;;-7.30;99.90;;;;;;5072520;28;20878;-78
2022/01/25 02:11:13;;;;;;;46.87;24.97;;;-7.90;99.90;;;;;;5072497;28;20412;-81
2022/01/25 02:13:42;;;;;;;41.63;25.60;;;-8.10;99.90;;;;;;5072205;28;20447;-75
2022/01/25 02:16:18;;;;;;;39.50;24.50;;;-7.70;99.90;;;;;;5072108;28;20408;-76
2022/01/25 02:24:12;;;;;;;40.17;23.47;;;-8.20;99.90;;;;;;5072128;28;20404;-77
2022/01/25 02:26:38;;;;;;;39.23;24.70;;;-7.90;99.90;;;;;;5072029;28;20401;-79
2022/01/25 03:03:13;;;;;;;45.73;30.20;;;-8.60;99.90;;;;;;5093391;28;20555;-77
2022/01/25 03:05:39;;;;;;;44.80;27.70;;;-7.50;99.90;;;;;;5093278;28;20385;-75
2022/01/25 03:08:07;;;;;;;43.50;25.67;;;-7.70;99.90;;;;;;5093344;28;20168;-74
2022/01/25 03:10:36;;;;;;;41.20;26.90;;;-7.80;99.90;;;;;;5092267;28;20208;-77
2022/01/25 03:13:02;;;;;;;43.17;25.63;;;-6.00;99.90;;;;;;5092853;28;20678;-77
2022/01/25 03:18:25;;;;;;;46.57;27.47;;;-7.00;99.90;;;;;;5093148;28;20454;-75
2022/01/25 03:20:59;;;;;;;46.70;28.33;;;-7.70;99.90;;;;;;5092950;28;20737;-75
2022/01/25 03:23:25;;;;;;;48.03;29.77;;;-7.50;99.90;;;;;;5093044;28;20417;-74
2022/01/25 03:25:52;;;;;;;56.33;28.40;;;-6.90;99.90;;;;;;5091831;28;20409;-74
2022/01/25 03:28:19;;;;;;;54.07;29.97;;;-6.80;99.90;;;;;;5092771;28;20219;-76
2022/01/25 03:30:46;;;;;;;50.83;29.17;;;-7.10;99.90;;;;;;5092914;28;20503;-74
2022/01/25 03:33:12;;;;;;;48.60;28.93;;;-6.80;99.90;;;;;;5095528;28;20817;-74
2022/01/25 03:35:39;;;;;;;48.00;30.77;;;-7.10;99.90;;;;;;5095369;28;20402;-74
2022/01/25 03:38:05;;;;;;;49.50;31.40;;;-7.20;99.90;;;;;;5092317;28;20839;-80
2022/01/25 03:40:31;;;;;;;48.93;30.63;;;-7.50;99.90;;;;;;5092780;28;20399;-75
2022/01/25 03:42:59;;;;;;;47.80;29.03;;;-7.40;99.90;;;;;;5092395;28;20538;-76
2022/01/25 03:45:32;;;;;;;64.73;34.33;;;-7.50;99.90;;;;;;5092564;28;20427;-75
2022/01/25 03:49:48;;;;;;;53.73;31.77;;;-7.50;99.90;;;;;;5092561;28;20853;-79
2022/01/25 03:50:47;;;;;;;61.43;33.03;;;-6.80;99.90;;;;;;5092333;28;20683;-78
2022/01/25 03:53:14;;;;;;;54.23;33.50;;;-7.90;99.90;;;;;;5092509;28;20447;-77
2022/01/25 03:55:41;;;;;;;56.50;32.33;;;-7.50;99.90;;;;;;5092327;28;20562;-77
2022/01/25 03:58:07;;;;;;;54.93;29.47;;;-7.60;99.90;;;;;;5092047;28;20453;-80
2022/01/25 04:00:35;;;;;;;48.50;29.20;;;-7.40;99.90;;;;;;5091146;28;20872;-77
2022/01/25 04:03:06;;;;;;;56.00;32.33;;;-7.90;99.90;;;;;;5092039;28;20470;-82
2022/01/25 04:05:47;;;;;;;51.67;28.30;;;-7.60;99.90;;;;;;5092194;28;20410;-79
2022/01/25 04:08:14;;;;;;;47.13;29.83;;;-7.80;99.90;;;;;;5091442;28;20408;-81
2022/01/25 04:10:40;;;;;;;61.93;31.63;;;-7.60;99.90;;;;;;5091784;28;20396;-82
2022/01/25 04:13:07;;;;;;;66.13;31.20;;;-7.50;99.90;;;;;;5086737;28;20486;-79
2022/01/25 04:15:34;;;;;;;50.77;29.77;;;-6.30;99.90;;;;;;5078384;28;20426;-76
2022/01/25 04:18:23;;;;;;;53.50;29.03;;;-7.70;99.90;;;;;;5078528;28;20759;-79
2022/01/25 04:26:25;;;;;;;46.80;28.50;;;-7.80;99.90;;;;;;5077155;28;20473;-79
2022/01/25 04:28:51;;;;;;;45.77;26.83;;;-7.80;99.90;;;;;;5078393;28;20404;-82
2022/01/25 04:31:19;;;;;;;64.60;27.73;;;-6.40;99.90;;;;;;5077989;28;20187;-75
2022/01/25 04:34:06;;;;;;;52.30;28.30;;;-8.20;99.90;;;;;;5078148;28;20167;-74
2022/01/25 04:50:15;;;;;;;76.27;27.30;;;-8.60;99.90;;;;;;5077875;28;20403;-82
2022/01/25 04:52:53;;;;;;;60.93;26.77;;;-8.50;99.90;;;;;;5077728;28;20750;-77
2022/01/25 04:55:27;;;;;;;67.63;27.40;;;-8.70;99.90;;;;;;5077508;28;20408;-81
2022/01/25 04:57:56;;;;;;;69.20;27.97;;;-8.50;99.90;;;;;;5077738;28;20487;-75
2022/01/25 05:00:23;;;;;;;60.27;26.73;;;-8.30;99.90;;;;;;5077659;28;20400;-77
2022/01/25 05:02:57;;;;;;;51.23;25.97;;;-8.10;99.90;;;;;;5077249;28;20460;-79
2022/01/25 05:05:34;;;;;;;43.40;25.33;;;-7.60;99.90;;;;;;5077742;28;20450;-83
2022/01/25 05:08:19;;;;;;;47.50;24.97;;;-7.60;99.90;;;;;;5077606;28;20429;-85
2022/01/25 05:10:52;;;;;;;60.47;25.73;;;-8.10;99.90;;;;;;5077515;28;20765;-86
2022/01/25 05:13:41;;;;;;;55.10;24.40;;;-8.00;99.90;;;;;;5076432;28;20491;-84
2022/01/25 05:19:01;;;;;;;59.83;25.97;;;-8.10;99.90;;;;;;5077466;28;20457;-81
2022/01/25 05:24:06;;;;;;;58.30;26.10;;;-8.10;99.90;;;;;;5076609;28;20873;-82
2022/01/25 05:26:32;;;;;;;46.13;25.80;;;-8.10;99.90;;;;;;5076475;28;20763;-83
2022/01/25 05:28:58;;;;;;;60.20;25.97;;;-7.50;99.90;;;;;;5076027;28;20450;-85
2022/01/25 05:31:24;;;;;;;72.80;25.43;;;-6.50;99.90;;;;;;5077094;28;20463;-80
2022/01/25 05:33:50;;;;;;;52.97;26.30;;;-6.90;99.90;;;;;;5076939;28;20396;-77
2022/01/25 05:36:16;;;;;;;77.07;28.10;;;-7.70;99.90;;;;;;5077129;28;20170;-82
2022/01/25 05:38:43;;;;;;;61.87;26.00;;;-8.40;99.90;;;;;;5076602;28;20170;-85
2022/01/25 05:41:09;;;;;;;55.70;27.47;;;-7.40;99.90;;;;;;5076835;28;20404;-85
2022/01/25 05:44:04;;;;;;;51.33;25.47;;;-6.50;99.90;;;;;;5076736;28;20403;-81
2022/01/25 05:46:42;;;;;;;54.77;26.13;;;-8.10;99.90;;;;;;5076831;28;20245;-78
2022/01/25 05:49:08;;;;;;;61.50;27.90;;;-7.40;99.90;;;;;;5076618;28;20403;-75
2022/01/25 05:51:33;;;;;;;72.17;25.67;;;-8.40;99.90;;;;;;5076625;28;20396;-77
2022/01/25 05:53:59;;;;;;;66.47;26.90;;;-6.50;99.90;;;;;;5076094;28;20173;-82
2022/01/25 05:56:25;;;;;;;56.80;27.33;;;-8.20;99.90;;;;;;5076733;28;20175;-78
2022/01/25 05:58:51;;;;;;;59.03;25.10;;;-8.60;99.90;;;;;;5076363;28;20493;-81
2022/01/25 06:01:18;;;;;;;75.00;26.47;;;-7.60;99.90;;;;;;5076260;28;20210;-79
2022/01/25 06:03:45;;;;;;;64.97;25.57;;;-6.90;99.90;;;;;;5076272;28;20167;-84
2022/01/25 06:06:11;;;;;;;62.63;27.20;;;-8.00;99.90;;;;;;5076302;28;20400;-80
2022/01/25 06:08:37;;;;;;;73.67;28.40;;;-7.60;99.90;;;;;;5075970;28;20422;-80
2022/01/25 06:11:03;;;;;;;95.43;28.23;;;-7.90;99.90;;;;;;5076321;28;20400;-83
2022/01/25 06:13:29;;;;;;;69.10;25.50;;;-7.70;99.90;;;;;;5076137;28;20183;-76
2022/01/25 06:15:55;;;;;;;45.33;26.00;;;-8.00;99.90;;;;;;5076118;28;20435;-78
2022/01/25 06:18:21;;;;;;;63.77;27.17;;;-8.40;99.90;;;;;;5076126;28;20171;-79
2022/01/25 06:20:46;;;;;;;53.73;25.97;;;-8.10;99.90;;;;;;5075923;28;20167;-78
2022/01/25 06:23:12;;;;;;;67.80;24.83;;;-7.90;99.90;;;;;;5075842;28;20664;-77
2022/01/25 06:25:38;;;;;;;61.50;26.37;;;-7.50;99.90;;;;;;5076093;28;20262;-82
2022/01/25 06:28:04;;;;;;;59.20;26.47;;;-7.80;99.90;;;;;;5075902;28;20579;-79
2022/01/25 06:30:30;;;;;;;83.90;26.53;;;-7.80;99.90;;;;;;5075956;28;20167;-75
2022/01/25 06:32:56;;;;;;;78.90;28.00;;;-7.70;99.90;;;;;;5076214;28;20186;-76
2022/01/25 06:35:21;;;;;;;83.43;26.30;;;-8.00;99.90;;;;;;5074443;28;20574;-83
2022/01/25 06:37:47;;;;;;;59.20;24.60;;;-8.10;99.90;;;;;;5075654;28;20177;-80
2022/01/25 06:40:14;;;;;;;101.60;27.87;;;-8.40;99.90;;;;;;5074613;28;20171;-76
2022/01/25 06:42:40;;;;;;;85.27;24.73;;;-8.30;99.90;;;;;;5075732;28;20440;-76
2022/01/25 06:45:12;;;;;;;61.53;23.53;;;-7.60;99.90;;;;;;5075656;28;20870;-76
2022/01/25 06:47:39;;;;;;;56.13;25.20;;;-8.50;99.90;;;;;;5075635;28;20159;-77
2022/01/25 06:50:05;;;;;;;99.77;28.30;;;-8.40;99.90;;;;;;5075339;28;20400;-78
2022/01/25 06:52:31;;;;;;;63.37;24.67;;;-8.30;99.90;;;;;;5075767;28;20428;-76
2022/01/25 06:54:57;;;;;;;107.37;28.97;;;-7.90;99.90;;;;;;5075155;28;20870;-76
2022/01/25 06:57:22;;;;;;;76.80;24.63;;;-7.60;99.90;;;;;;5056684;28;20215;-84
2022/01/25 06:59:48;;;;;;;68.50;22.63;;;-7.90;99.90;;;;;;5071345;28;20179;-77
2022/01/25 07:02:15;;;;;;;86.83;24.03;;;-8.10;99.90;;;;;;5074764;28;20211;-82
2022/01/25 07:04:41;;;;;;;73.23;24.77;;;-7.90;99.90;;;;;;5075347;28;20560;-85
2022/01/25 07:07:07;;;;;;;139.87;31.53;;;-8.00;99.90;;;;;;5074334;28;20391;-75
2022/01/25 07:09:35;;;;;;;82.50;25.97;;;-8.00;99.90;;;;;;5075394;28;20235;-75
2022/01/25 07:12:00;;;;;;;53.40;22.67;;;-7.30;99.90;;;;;;5075667;28;20175;-79
2022/01/25 07:14:26;;;;;;;60.63;23.93;;;-8.00;99.90;;;;;;5075784;28;20411;-79
2022/01/25 07:16:53;;;;;;;66.43;23.67;;;-8.40;99.90;;;;;;5069743;28;20175;-75
2022/01/25 07:19:18;;;;;;;43.23;22.80;;;-7.50;99.90;;;;;;5066501;28;20177;-76
2022/01/25 07:21:44;;;;;;;58.17;20.70;;;-8.50;99.90;;;;;;5067543;28;20435;-75
2022/01/25 07:24:10;;;;;;;44.57;21.47;;;-8.30;99.90;;;;;;5076598;28;20164;-79
2022/01/25 07:26:35;;;;;;;71.03;20.37;;;-8.10;99.90;;;;;;5073673;28;20516;-77
2022/01/25 07:29:01;;;;;;;50.47;19.67;;;-8.20;99.90;;;;;;5075748;28;20171;-73
2022/01/25 07:31:27;;;;;;;58.00;21.60;;;-6.60;99.90;;;;;;5075260;28;20175;-77
2022/01/25 07:33:53;;;;;;;52.53;22.23;;;-7.70;99.90;;;;;;5074280;28;20172;-76
2022/01/25 07:36:22;;;;;;;79.17;22.10;;;-7.90;99.90;;;;;;5066060;28;20179;-77
2022/01/25 07:38:48;;;;;;;61.83;20.83;;;-8.30;99.90;;;;;;5059605;28;20176;-76
2022/01/25 07:41:14;;;;;;;48.10;19.53;;;-8.30;99.90;;;;;;5054777;28;20685;-75
2022/01/25 07:43:40;;;;;;;57.43;20.70;;;-7.80;99.90;;;;;;5054634;28;20251;-76
2022/01/25 07:46:06;;;;;;;48.73;19.70;;;-8.30;99.90;;;;;;5054613;28;20784;-75
2022/01/25 07:48:32;;;;;;;79.27;20.67;;;-8.40;99.90;;;;;;5055345;28;20164;-75
2022/01/25 07:50:57;;;;;;;51.77;20.77;;;-7.80;99.90;;;;;;5058205;28;20172;-75
2022/01/25 07:53:23;;;;;;;52.63;18.53;;;-7.80;99.90;;;;;;5058756;28;20160;-75
2022/01/25 07:55:49;;;;;;;81.27;22.93;;;-7.70;99.90;;;;;;5062492;28;20258;-75
2022/01/25 07:58:15;;;;;;;56.37;21.90;;;-6.60;99.90;;;;;;5067665;28;20534;-79
2022/01/25 08:00:41;;;;;;;49.80;20.90;;;-7.70;99.90;;;;;;5076916;28;20246;-76
2022/01/25 08:03:12;;;;;;;77.57;20.90;;;-7.70;99.90;;;;;;5068099;28;20224;-77
2022/01/25 08:05:37;;;;;;;70.13;21.00;;;-7.50;99.90;;;;;;5075714;28;20164;-75
2022/01/25 08:08:04;;;;;;;65.13;19.03;;;-6.40;99.90;;;;;;5077341;28;20402;-75
2022/01/25 08:10:30;;;;;;;96.40;24.10;;;-7.40;99.90;;;;;;5077797;28;20234;-77
2022/01/25 08:12:59;;;;;;;87.77;22.30;;;-7.90;99.90;;;;;;5078194;28;20777;-77
2022/01/25 08:15:25;;;;;;;73.87;21.40;;;-7.40;99.90;;;;;;5077538;28;20159;-76
2022/01/25 08:17:51;;;;;;;64.13;20.83;;;-6.60;99.90;;;;;;5076653;28;20404;-81
2022/01/25 08:20:17;;;;;;;61.73;19.47;;;-8.10;99.90;;;;;;5077081;28;20167;-79
2022/01/25 08:22:44;;;;;;;68.53;23.53;;;-7.90;99.90;;;;;;5076096;28;20940;-76
2022/01/25 08:25:12;;;;;;;70.87;20.10;;;-7.70;99.90;;;;;;5078026;28;20147;-77
2022/01/25 08:27:40;;;;;;;56.00;19.87;;;-9.30;99.90;;;;;;5073457;28;20396;-74
2022/01/25 08:30:07;;;;;;;49.00;19.30;;;-8.50;99.90;;;;;;5077455;28;20490;-75
2022/01/25 08:32:38;;;;;;;65.30;20.43;;;-8.70;99.90;;;;;;5077090;28;20422;-76
2022/01/25 08:35:04;;;;;;;68.67;19.70;;;-8.30;99.90;;;;;;5078081;28;20399;-75
2022/01/25 08:37:30;;;;;;;84.43;21.70;;;-5.40;99.90;;;;;;5077585;28;20716;-83
2022/01/25 08:39:56;;;;;;;76.27;21.17;;;-7.10;99.90;;;;;;5077909;28;20404;-85
2022/01/25 08:42:22;;;;;;;71.50;22.43;;;-6.40;99.90;;;;;;5077377;28;20245;-80
2022/01/25 08:44:48;;;;;;;74.07;20.57;;;-8.00;99.90;;;;;;5076796;28;20431;-76
2022/01/25 08:47:14;;;;;;;71.50;18.77;;;-7.90;99.90;;;;;;5076270;28;20164;-75
2022/01/25 08:49:40;;;;;;;77.57;19.83;;;-7.90;99.90;;;;;;5076961;28;20160;-77
2022/01/25 08:52:06;;;;;;;50.57;19.47;;;-7.70;99.90;;;;;;5077336;28;20184;-82
2022/01/25 08:54:33;;;;;;;39.80;19.00;;;-8.50;99.90;;;;;;5076877;28;20171;-82
2022/01/25 08:56:59;;;;;;;63.53;20.40;;;-7.80;99.90;;;;;;5073232;28;20412;-75
2022/01/25 08:59:25;;;;;;;70.53;20.17;;;-7.70;99.90;;;;;;5076844;28;20538;-75
2022/01/25 09:01:52;;;;;;;77.13;20.80;;;-8.50;99.90;;;;;;5076496;28;20455;-75
2022/01/25 09:04:18;;;;;;;69.40;19.60;;;-8.20;99.90;;;;;;5075986;28;20400;-76
2022/01/25 09:06:44;;;;;;;106.77;22.77;;;-7.90;99.90;;;;;;5076243;28;20691;-78
2022/01/25 09:09:11;;;;;;;64.77;20.17;;;-7.70;99.90;;;;;;5076092;28;20221;-79
2022/01/25 09:11:41;;;;;;;60.90;20.47;;;-7.70;99.90;;;;;;5071626;28;20491;-74
2022/01/25 09:14:08;;;;;;;60.37;21.80;;;-7.50;99.90;;;;;;5076023;28;20454;-76
2022/01/25 09:16:35;;;;;;;76.23;21.50;;;-7.40;99.90;;;;;;5075614;28;20404;-74
2022/01/25 09:19:05;;;;;;;67.50;19.53;;;-7.90;99.90;;;;;;5075279;28;20404;-74
2022/01/25 09:21:31;;;;;;;128.23;22.97;;;-7.50;99.90;;;;;;5075072;28;20478;-75
2022/01/25 09:23:58;;;;;;;59.80;19.47;;;-7.00;99.90;;;;;;5076598;28;20414;-75
2022/01/25 09:26:24;;;;;;;65.27;19.23;;;-8.00;99.90;;;;;;5072295;28;20896;-77
2022/01/25 09:28:54;;;;;;;44.60;20.57;;;-7.90;99.90;;;;;;5075998;28;20396;-74
2022/01/25 09:31:21;;;;;;;61.50;22.27;;;-7.30;99.90;;;;;;5075943;28;20573;-74
2022/01/25 09:33:46;;;;;;;50.50;18.53;;;-7.10;99.90;;;;;;5076192;28;20823;-79
2022/01/25 09:36:13;;;;;;;68.60;20.03;;;-7.70;99.90;;;;;;5075299;28;20404;-73
2022/01/25 09:38:39;;;;;;;58.47;19.97;;;-7.50;99.90;;;;;;5074857;28;20179;-76
2022/01/25 09:41:05;;;;;;;54.50;18.33;;;-6.70;99.90;;;;;;5075788;28;20397;-74
2022/01/25 09:43:31;;;;;;;76.93;20.20;;;-7.30;99.90;;;;;;5075765;28;20247;-78
2022/01/25 09:45:57;;;;;;;77.73;21.80;;;-7.60;99.90;;;;;;5076180;28;20403;-75
2022/01/25 09:48:25;;;;;;;103.13;22.47;;;-7.20;99.90;;;;;;5074697;28;20408;-77
2022/01/25 09:50:51;;;;;;;59.27;19.53;;;-7.30;99.90;;;;;;5076130;28;20389;-78
2022/01/25 09:53:17;;;;;;;59.93;22.90;;;-7.10;99.90;;;;;;5074620;28;20404;-72
2022/01/25 09:55:44;;;;;;;57.47;19.80;;;-6.80;99.90;;;;;;5071756;28;20712;-76
2022/01/25 09:58:12;;;;;;;41.17;20.97;;;-7.00;99.90;;;;;;5075704;28;20384;-75
2022/01/25 10:00:41;;;;;;;69.07;21.07;;;-7.20;99.90;;;;;;5075035;28;20408;-73
2022/01/25 10:03:15;;;;;;;46.67;18.77;;;-7.10;99.90;;;;;;5074322;28;20455;-74
2022/01/25 10:05:44;;;;;;;41.20;19.93;;;-7.00;99.90;;;;;;5075605;28;20479;-74
2022/01/25 10:08:21;;;;;;;46.07;20.13;;;-6.70;99.90;;;;;;5074364;28;20749;-76
2022/01/25 10:10:50;;;;;;;63.60;24.60;;;-7.20;99.90;;;;;;5075035;28;20437;-76
2022/01/25 10:13:22;;;;;;;45.90;20.87;;;-7.20;99.90;;;;;;5075230;28;20442;-75
2022/01/25 10:15:51;;;;;;;62.20;18.77;;;-6.50;99.90;;;;;;5074979;28;20400;-75
2022/01/25 10:18:18;;;;;;;48.57;18.90;;;-6.00;99.90;;;;;;5074237;28;20723;-74
2022/01/25 10:20:49;;;;;;;45.43;19.23;;;-7.20;99.90;;;;;;5075236;28;20396;-74
2022/01/25 10:23:30;;;;;;;39.70;19.40;;;-7.50;99.90;;;;;;5073937;28;20564;-74
2022/01/25 10:25:59;;;;;;;37.10;17.97;;;-7.40;99.90;;;;;;5070704;28;20409;-76
2022/01/25 10:28:30;;;;;;;37.27;17.57;;;-7.10;99.90;;;;;;5074620;28;20662;-74
2022/01/25 10:31:01;;;;;;;32.00;16.97;;;-7.20;99.90;;;;;;5074824;28;20895;-73
2022/01/25 10:33:31;;;;;;;32.27;16.13;;;-7.40;99.90;;;;;;5074411;28;20507;-73
2022/01/25 10:36:01;;;;;;;34.13;17.33;;;-7.50;99.90;;;;;;5074611;28;20741;-73
2022/01/25 10:38:32;;;;;;;40.20;19.37;;;-7.10;99.90;;;;;;5075198;28;20377;-73
2022/01/25 10:41:05;;;;;;;36.40;19.37;;;-6.70;99.90;;;;;;5074214;28;20401;-73
2022/01/25 10:43:32;;;;;;;45.20;18.27;;;-6.10;99.90;;;;;;5074574;28;20393;-76
2022/01/25 10:46:09;;;;;;;31.23;16.80;;;-6.80;99.90;;;;;;5075084;28;20389;-71
2022/01/25 10:48:35;;;;;;;39.57;20.23;;;-7.00;99.90;;;;;;5074452;28;20720;-72
2022/01/25 10:51:10;;;;;;;39.70;19.30;;;-7.10;99.90;;;;;;5074135;28;20468;-71
2022/01/25 10:53:37;;;;;;;42.87;22.87;;;-7.30;99.90;;;;;;5075019;28;20391;-72
2022/01/25 10:56:05;;;;;;;50.67;20.50;;;-7.10;99.90;;;;;;5070724;28;20400;-85
2022/01/25 10:58:37;;;;;;;41.73;20.00;;;-6.60;99.90;;;;;;5074335;28;20376;-75
2022/01/25 11:01:03;;;;;;;40.63;19.47;;;-7.10;99.90;;;;;;5074431;28;20431;-82
2022/01/25 11:03:35;;;;;;;35.80;19.53;;;-7.20;99.90;;;;;;5073946;28;20890;-73
2022/01/25 11:06:14;;;;;;;38.60;18.03;;;-6.80;99.90;;;;;;5075095;28;20171;-74
2022/01/25 11:08:43;;;;;;;32.93;17.37;;;-6.90;99.90;;;;;;5073662;28;20421;-78
2022/01/25 11:11:11;;;;;;;35.87;17.67;;;-6.70;99.90;;;;;;5074329;28;20400;-79
2022/01/25 11:13:41;;;;;;;43.43;18.07;;;-6.60;99.90;;;;;;5072983;28;20906;-78
2022/01/25 11:16:11;;;;;;;34.80;18.40;;;-6.50;99.90;;;;;;5062684;28;20491;-81
2022/01/25 11:18:38;;;;;;;39.03;19.90;;;-6.70;99.90;;;;;;5053440;28;20420;-80
2022/01/25 11:21:11;;;;;;;37.07;18.00;;;-6.70;99.90;;;;;;5059894;28;20929;-77
2022/01/25 11:23:39;;;;;;;36.37;18.63;;;-6.80;99.90;;;;;;5074227;28;20483;-85
2022/01/25 11:26:09;;;;;;;37.40;20.67;;;-6.50;99.90;;;;;;5076947;28;20993;-77
2022/01/25 11:28:37;;;;;;;43.27;19.80;;;-6.60;99.90;;;;;;5078368;28;20401;-77
2022/01/25 11:31:10;;;;;;;36.43;18.77;;;-6.70;99.90;;;;;;5069631;28;20477;-78
2022/01/25 11:33:42;;;;;;;38.90;19.73;;;-6.50;99.90;;;;;;5077214;28;20411;-80
2022/01/25 11:36:09;;;;;;;39.10;18.90;;;-6.70;99.90;;;;;;5075640;28;20428;-76
2022/01/25 11:38:42;;;;;;;35.43;19.20;;;-6.60;99.90;;;;;;5069210;28;20409;-74
2022/01/25 11:41:14;;;;;;;42.03;19.13;;;-6.50;99.90;;;;;;5061685;28;20397;-77
2022/01/25 11:44:07;;;;;;;44.30;20.97;;;-6.30;99.90;;;;;;5071227;28;20415;-77
2022/01/25 11:46:35;;;;;;;40.70;19.13;;;-5.30;99.90;;;;;;5070870;28;21089;-74
2022/01/25 11:49:14;;;;;;;38.57;17.77;;;-5.90;99.90;;;;;;5067177;28;20449;-74
2022/01/25 11:51:40;;;;;;;41.03;20.57;;;-5.70;99.90;;;;;;5066330;28;20455;-74
2022/01/25 11:54:08;;;;;;;37.47;20.30;;;-6.00;99.90;;;;;;5067301;28;20541;-77
2022/01/25 11:56:36;;;;;;;36.77;18.57;;;-6.20;99.90;;;;;;5067485;28;20831;-77
2022/01/25 11:59:02;;;;;;;38.90;20.83;;;-6.00;99.90;;;;;;5066610;28;20398;-77
2022/01/25 12:01:29;;;;;;;34.80;18.70;;;-5.70;99.90;;;;;;5068551;28;20483;-74
2022/01/25 12:04:06;;;;;;;35.93;18.37;;;-6.30;99.90;;;;;;5065133;28;20171;-79
2022/01/25 12:06:38;;;;;;;46.73;21.17;;;-6.30;99.90;;;;;;5067364;28;20405;-76
2022/01/25 12:09:31;;;;;;;39.20;20.23;;;-6.40;99.90;;;;;;5067943;28;20401;-79
2022/01/25 12:12:00;;;;;;;39.50;19.93;;;-6.50;99.90;;;;;;5075164;28;20710;-74
2022/01/25 12:14:36;;;;;;;37.77;19.47;;;-6.60;99.90;;;;;;5078304;28;20828;-77
2022/01/25 12:17:02;;;;;;;42.53;21.33;;;-6.50;99.90;;;;;;5078550;28;20461;-74
2022/01/25 12:19:48;;;;;;;33.20;17.93;;;-6.60;99.90;;;;;;5077365;28;20432;-75
2022/01/25 12:22:26;;;;;;;46.90;21.97;;;-6.00;99.90;;;;;;5076709;28;20630;-76
2022/01/25 12:27:38;;;;;;;46.17;25.20;;;-6.40;99.90;;;;;;5063105;28;20407;-76
2022/01/25 12:30:09;;;;;;;41.10;22.30;;;-5.90;99.90;;;;;;5077492;28;20420;-75
2022/01/25 12:32:37;;;;;;;40.57;22.00;;;-6.20;99.90;;;;;;5077405;28;20502;-75
2022/01/25 12:35:16;;;;;;;34.30;20.50;;;-6.20;99.90;;;;;;5076696;28;20443;-78
2022/01/25 12:37:46;;;;;;;41.73;21.43;;;-6.30;99.90;;;;;;5076602;28;20427;-76
2022/01/25 12:40:28;;;;;;;42.93;22.60;;;-7.30;99.90;;;;;;5075008;28;20400;-78
2022/01/25 12:43:14;;;;;;;42.73;18.93;;;-5.90;99.90;;;;;;5071154;28;20801;-78
2022/01/25 12:45:50;;;;;;;37.53;18.33;;;-5.80;99.90;;;;;;5062845;28;20410;-83
2022/01/25 12:48:24;;;;;;;41.40;21.70;;;-5.80;99.90;;;;;;5073434;28;20457;-73
2022/01/25 12:50:58;;;;;;;43.13;21.63;;;-6.00;99.90;;;;;;5077113;28;20456;-75
2022/01/25 12:53:27;;;;;;;44.93;22.27;;;-6.50;99.90;;;;;;5076576;28;20388;-75
2022/01/25 12:55:56;;;;;;;42.33;22.67;;;-5.90;99.90;;;;;;5070646;28;20416;-75
2022/01/25 12:58:26;;;;;;;44.03;23.90;;;-6.30;99.90;;;;;;5063584;28;20412;-76
2022/01/25 13:00:55;;;;;;;52.50;25.83;;;-6.10;99.90;;;;;;5076652;28;20876;-78
2022/01/25 13:03:29;;;;;;;59.10;32.07;;;-5.80;99.90;;;;;;5096627;28;20443;-74
2022/01/25 13:06:01;;;;;;;58.70;28.40;;;-6.20;99.90;;;;;;5097115;28;20869;-74
2022/01/25 13:08:34;;;;;;;51.90;27.83;;;-5.70;99.90;;;;;;5096653;28;20396;-74
2022/01/25 13:11:16;;;;;;;49.43;23.70;;;-6.00;99.90;;;;;;5078136;28;20446;-80
2022/01/25 13:14:01;;;;;;;51.57;27.20;;;-5.70;99.90;;;;;;5074907;28;20733;-75
2022/01/25 13:16:46;;;;;;;50.13;24.73;;;-6.20;99.90;;;;;;5075962;28;20400;-75
2022/01/25 13:19:14;;;;;;;49.07;23.77;;;-5.90;99.90;;;;;;5075054;28;20491;-74
2022/01/25 13:21:48;;;;;;;55.13;27.87;;;-5.90;99.90;;;;;;5075109;28;20440;-75
2022/01/25 13:24:18;;;;;;;52.83;24.60;;;-6.00;99.90;;;;;;5076417;28;20387;-75
2022/01/25 13:26:53;;;;;;;54.20;25.87;;;-6.10;99.90;;;;;;5064167;28;20411;-76
2022/01/25 13:32:19;;;;;;;54.37;24.13;;;-6.20;99.90;;;;;;5074934;28;20435;-75
2022/01/25 13:34:59;;;;;;;59.63;25.30;;;-5.50;99.90;;;;;;5076291;28;20404;-75
2022/01/25 13:37:25;;;;;;;48.83;24.07;;;-6.10;99.90;;;;;;5076266;28;20494;-75
2022/01/25 13:39:59;;;;;;;59.27;27.90;;;-5.90;99.90;;;;;;5075290;28;20426;-75
2022/01/25 13:48:14;;;;;;;58.00;27.37;;;-5.80;99.90;;;;;;5072674;28;20417;-76
2022/01/25 13:50:41;;;;;;;62.83;28.90;;;-5.80;99.90;;;;;;5076950;28;20404;-76
2022/01/25 13:53:09;;;;;;;66.77;30.17;;;-5.90;99.90;;;;;;5076023;28;20408;-82
2022/01/25 13:55:36;;;;;;;61.50;29.00;;;-6.10;99.90;;;;;;5072407;28;20416;-76
2022/01/25 13:58:03;;;;;;;63.13;30.20;;;-6.20;99.90;;;;;;5058341;28;20401;-85
2022/01/25 14:00:29;;;;;;;60.13;27.83;;;-5.90;99.90;;;;;;5075095;28;20502;-74
2022/01/25 14:02:59;;;;;;;69.93;30.80;;;-6.10;99.90;;;;;;5075697;28;20938;-78
2022/01/25 14:05:25;;;;;;;57.77;28.83;;;-5.50;99.90;;;;;;5075705;28;20411;-76
2022/01/25 14:07:54;;;;;;;63.77;29.07;;;-6.00;99.90;;;;;;5074934;28;20405;-78
2022/01/25 14:10:26;;;;;;;69.70;28.70;;;-5.70;99.90;;;;;;5075546;28;20409;-75
2022/01/25 14:23:56;;;;;;;60.23;27.67;;;-6.10;99.90;;;;;;5075517;28;20463;-75
2022/01/25 14:26:29;;;;;;;63.73;28.07;;;-6.40;99.90;;;;;;5066444;28;20413;-85
2022/01/25 14:29:05;;;;;;;67.30;29.63;;;-6.20;99.90;;;;;;5056348;28;20412;-88
2022/01/25 14:31:37;;;;;;;63.43;29.07;;;-6.30;99.90;;;;;;5069739;28;20434;-87
2022/01/25 14:34:06;;;;;;;63.60;31.13;;;-6.40;99.90;;;;;;5075520;28;20412;-91
2022/01/25 14:36:32;;;;;;;55.60;27.27;;;-6.20;99.90;;;;;;5059642;28;20785;-81
2022/01/25 14:38:59;;;;;;;60.07;29.20;;;-5.80;99.90;;;;;;5055026;28;20405;-80
2022/01/25 14:41:29;;;;;;;72.23;31.03;;;-6.00;99.90;;;;;;5068196;28;20400;-77
2022/01/25 14:44:01;;;;;;;61.47;29.03;;;-6.40;99.90;;;;;;5074250;28;20383;-77
2022/01/25 14:46:51;;;;;;;68.80;31.40;;;-6.20;99.90;;;;;;5074720;28;20403;-78
2022/01/25 14:49:25;;;;;;;72.17;30.10;;;-6.20;99.90;;;;;;5075049;28;20478;-75
2022/01/25 14:52:06;;;;;;;64.83;32.20;;;-6.40;99.90;;;;;;5074759;28;20412;-75
2022/01/25 14:54:35;;;;;;;66.57;30.97;;;-6.20;99.90;;;;;;5074840;28;20507;-75
2022/01/25 14:57:10;;;;;;;66.80;30.03;;;-6.40;99.90;;;;;;5060301;28;20736;-78
2022/01/25 14:59:46;;;;;;;71.40;30.30;;;-6.30;99.90;;;;;;5053960;28;20417;-76
2022/01/25 15:02:18;;;;;;;58.00;28.43;;;-6.00;99.90;;;;;;5074302;28;20470;-74
2022/01/25 15:04:52;;;;;;;65.33;31.03;;;-6.10;99.90;;;;;;5073508;28;20403;-75
2022/01/25 15:07:30;;;;;;;60.37;30.60;;;-6.00;99.90;;;;;;5074348;28;20724;-77
2022/01/25 15:09:59;;;;;;;64.70;28.47;;;-6.10;99.90;;;;;;5074343;28;20407;-85